Terminal Aerodrome Forecast
Issued by NWS Pueblo, CO

Home | Current Version | Previous Version | Text Only | Print | Product List | Glossary On
Versions: 1 2 3 4 5 6 7 8 9 10 11 12 13 14 15
000
FTUS45 KPUB 302324
TAFCOS
TAF
KCOS 302324Z 0100/0124 02012KT P6SM VCTS SCT060 BKN100CB
      TEMPO 0100/0103 VRB15G25KT -TSRA BKN060CB OVC100
     FM010300 35010KT P6SM VCSH SCT060 BKN100
     FM010600 34008KT P6SM SCT060 BKN100
     FM011400 VRB03KT P6SM SCT100
     FM011900 16010KT P6SM SCT100=

USA.gov is the U.S. government's official web portal to all federal, state and local government web resources and services.